Create Custom Reports and Graphics: Custom Report

Modesto Jr College

Current Conditions

8/18/19 10:30 AM (-07:00)
Updated Every 15 Minutes
Temp 71.2 °F   6.2
RH 57 %   6
Dew Pt 55.3 °F   2.9
Wind Spd 3.2 mph
Wind Dir NW | 325 °
Wind Gust 7.9 mph   0.2
Latest Rain 0.00 In
Daily Rain 0.00 In
Daily Min Temp 57.1 °F   2.8
Daily Max Temp 72.4 °F   6.2

Last 24 Hours

Modesto Jr College

15 Minute Data | America/Los_Angeles
as of 8/18/19 10:41 AM PDT
Date & Time Temp (°F) RH (%) Dew Pt (°F) Wind Spd (mph) Wind Dir (°) Wind Gust (mph) Latest Rain (In) Daily Rain (In) Daily Min Temp (°F) Daily Max Temp (°F)
8/18/19 - 1030 71.2 57 55.3 3.2 NW | 325 7.9 0.00 0.00 57.1 72.4
8/18/19 - 1015 70.3 60 55.9 2.8 NNE | 25 7.5 0.00 0.00 57.1 71.6
8/18/19 - 1000 69.0 64 56.1 3.2 NNW | 339 7.7 0.00 0.00 57.1 70.3
8/18/19 - 0945 68.0 65 56.1 3.8 N | 350 7.5 0.00 0.00 57.1 68.4
8/18/19 - 0930 67.6 66 56.0 4.0 NW | 324 7.2 0.00 0.00 57.1 68.3
8/18/19 - 0915 65.8 72 56.3 3.5 NNW | 344 9.2 0.00 0.00 57.1 67.1
8/18/19 - 0900 64.8 73 56.0 5.6 NNW | 337 9.6 0.00 0.00 57.1 65.5
8/18/19 - 0845 64.0 76 56.3 5.0 NNW | 333 9.0 0.00 0.00 57.1 64.8
8/18/19 - 0830 63.2 79 56.7 4.9 NNW | 331 9.6 0.00 0.00 57.1 63.7
8/18/19 - 0815 62.3 81 56.3 4.7 N | 353 8.1 0.00 0.00 57.1 63.0
8/18/19 - 0800 61.7 82 56.2 3.8 N | 358 6.6 0.00 0.00 57.1 63.0
8/18/19 - 0745 60.5 83 55.4 4.8 N | 351 7.7 0.00 0.00 57.1 63.0
8/18/19 - 0730 59.7 85 55.2 4.6 N | 359 7.5 0.00 0.00 57.1 63.0
8/18/19 - 0715 59.0 86 54.9 3.6 N | 350 7.2 0.00 0.00 57.1 63.0
8/18/19 - 0700 58.0 88 54.6 3.9 N | 353 6.6 0.00 0.00 57.1 63.0
8/18/19 - 0645 57.3 89 54.1 2.9 N | 3 6.4 0.00 0.00 57.1 63.0
8/18/19 - 0630 57.3 89 54.1 2.1 N | 359 4.2 0.00 0.00 57.1 63.0
8/18/19 - 0615 57.5 88 54.0 1.8 N | 10 5.0 0.00 0.00 57.1 63.0
8/18/19 - 0600 57.7 88 54.2 1.8 N | 359 4.4 0.00 0.00 57.4 63.0
8/18/19 - 0545 57.9 88 54.3 3.1 N | 355 5.9 0.00 0.00 57.4 63.0
8/18/19 - 0530 57.7 88 54.1 2.7 N | 4 5.5 0.00 0.00 57.4 63.0
8/18/19 - 0515 57.8 87 54.0 1.8 NNW | 343 4.4 0.00 0.00 57.4 63.0
8/18/19 - 0500 57.8 87 54.0 2.8 NNW | 338 6.1 0.00 0.00 57.4 63.0
8/18/19 - 0445 58.1 86 54.0 2.9 NNW | 332 5.0 0.00 0.00 57.7 63.0
8/18/19 - 0430 58.4 86 54.2 3.4 NNW | 328 5.5 0.00 0.00 58.2 63.0
8/18/19 - 0415 58.4 86 54.1 3.0 NW | 324 5.3 0.00 0.00 58.2 63.0
8/18/19 - 0400 58.5 85 54.1 2.9 NW | 324 5.3 0.00 0.00 58.2 63.0
8/18/19 - 0345 58.7 85 54.1 2.3 NW | 320 3.7 0.00 0.00 58.4 63.0
8/18/19 - 0330 59.2 84 54.3 2.8 NW | 326 5.7 0.00 0.00 58.8 63.0
8/18/19 - 0315 59.6 83 54.4 3.2 NNW | 331 6.4 0.00 0.00 59.3 63.0
8/18/19 - 0300 59.6 83 54.4 3.1 NNW | 335 8.1 0.00 0.00 59.4 63.0
8/18/19 - 0245 59.8 82 54.3 1.8 N | 356 3.7 0.00 0.00 59.5 63.0
8/18/19 - 0230 60.3 80 54.3 2.7 NW | 322 4.2 0.00 0.00 59.9 63.0
8/18/19 - 0215 60.8 80 54.4 2.1 WNW | 302 5.5 0.00 0.00 60.4 63.0
8/18/19 - 0200 61.1 79 54.4 2.9 NW | 314 5.3 0.00 0.00 60.8 63.0
8/18/19 - 0145 61.6 77 54.5 2.7 WNW | 299 5.7 0.00 0.00 61.2 63.0
8/18/19 - 0130 61.7 77 54.6 3.4 NW | 314 5.7 0.00 0.00 61.5 63.0
8/18/19 - 0115 62.3 76 54.8 2.8 NW | 312 4.8 0.00 0.00 61.8 63.0
8/18/19 - 0100 62.8 76 55.0 4.5 NW | 326 8.6 0.00 0.00 59.9 90.7
8/18/19 - 0045 63.6 74 55.2 2.5 NNW | 327 5.3 0.00 0.00 59.9 90.7
8/18/19 - 0030 64.4 72 55.4 4.7 N | 351 7.2 0.00 0.00 59.9 90.7
8/18/19 - 0015 65.0 72 55.8 3.0 N | 356 6.6 0.00 0.00 59.9 90.7
8/18/19 - 0000 65.5 71 56.0 4.0 N | 356 7.2 0.00 0.00 59.9 90.7
8/17/19 - 2345 66.1 69 55.7 3.0 NNW | 336 6.1 0.00 0.00 59.9 90.7
8/17/19 - 2330 66.8 68 55.8 2.6 NNW | 333 5.3 0.00 0.00 59.9 90.7
8/17/19 - 2315 67.3 67 55.9 3.7 NNW | 331 6.6 0.00 0.00 59.9 90.7
8/17/19 - 2300 68.2 63 55.2 3.9 NW | 322 6.6 0.00 0.00 59.9 90.7
8/17/19 - 2245 68.8 61 55.0 5.2 NW | 323 9.6 0.00 0.00 59.9 90.7
8/17/19 - 2230 69.3 60 54.8 5.2 NNW | 332 9.6 0.00 0.00 59.9 90.7
8/17/19 - 2215 69.4 58 54.2 4.7 NNW | 335 8.3 0.00 0.00 59.9 90.7
8/17/19 - 2200 69.6 58 53.9 2.8 NW | 323 7.0 0.00 0.00 59.9 90.7
8/17/19 - 2145 70.2 57 54.0 2.8 NW | 320 6.4 0.00 0.00 59.9 90.7
8/17/19 - 2130 70.7 57 55.0 2.9 WNW | 302 5.0 0.00 0.00 59.9 90.7
8/17/19 - 2115 71.2 58 55.8 3.5 WNW | 289 5.9 0.00 0.00 59.9 90.7
8/17/19 - 2100 71.8 60 57.1 3.4 WNW | 286 6.1 0.00 0.00 59.9 90.7
8/17/19 - 2045 72.6 59 57.6 4.1 W | 267 5.9 0.00 0.00 59.9 90.7
8/17/19 - 2030 74.1 58 58.5 3.1 W | 279 7.2 0.00 0.00 59.9 90.7
8/17/19 - 2015 75.4 56 58.7 3.0 WNW | 285 5.3 0.00 0.00 59.9 90.7
8/17/19 - 2000 77.2 53 58.9 3.5 W | 278 6.1 0.00 0.00 59.9 90.7
8/17/19 - 1945 79.4 49 58.6 4.1 WNW | 284 7.7 0.00 0.00 59.9 90.7
8/17/19 - 1930 81.1 46 58.2 4.5 WNW | 292 8.6 0.00 0.00 59.9 90.7
8/17/19 - 1915 82.6 44 58.4 5.8 WNW | 296 9.9 0.00 0.00 59.9 90.7
8/17/19 - 1900 83.9 41 57.9 5.2 WNW | 294 9.9 0.00 0.00 59.9 90.7
8/17/19 - 1845 84.6 39 57.0 6.8 WNW | 299 12.9 0.00 0.00 59.9 90.7
8/17/19 - 1830 85.3 39 57.8 7.6 WNW | 293 14.2 0.00 0.00 59.9 90.7
8/17/19 - 1815 86.5 39 58.3 7.2 WNW | 294 12.9 0.00 0.00 59.9 90.7
8/17/19 - 1800 87.4 39 59.2 6.8 WNW | 303 11.0 0.00 0.00 59.9 90.7
8/17/19 - 1745 87.8 38 58.7 7.2 WNW | 293 15.1 0.00 0.00 59.9 90.7
8/17/19 - 1730 88.1 37 58.2 7.7 WNW | 288 12.9 0.00 0.00 59.9 90.7
8/17/19 - 1715 88.8 37 59.0 7.2 WNW | 290 14.2 0.00 0.00 59.9 90.7
8/17/19 - 1700 89.7 36 58.9 6.7 WNW | 286 11.6 0.00 0.00 59.9 90.7
8/17/19 - 1645 90.2 36 59.4 5.4 WNW | 282 10.7 0.00 0.00 59.9 90.7
8/17/19 - 1630 90.2 36 59.8 4.1 WNW | 289 9.0 0.00 0.00 59.9 90.7
8/17/19 - 1615 90.3 38 60.9 3.9 WNW | 295 7.5 0.00 0.00 59.9 90.7
8/17/19 - 1600 90.0 37 60.1 3.2 W | 259 7.2 0.00 0.00 59.9 90.6
8/17/19 - 1545 89.3 36 58.8 2.9 SW | 226 6.6 0.00 0.00 59.9 89.9
8/17/19 - 1530 89.2 38 60.1 3.0 SW | 226 7.9 0.00 0.00 59.9 89.6
8/17/19 - 1515 88.8 38 60.1 2.9 WSW | 254 7.5 0.00 0.00 59.9 89.3
8/17/19 - 1500 88.4 39 60.5 3.9 WSW | 254 7.2 0.00 0.00 59.9 88.9
8/17/19 - 1445 87.4 40 59.8 3.3 WSW | 249 7.0 0.00 0.00 59.9 87.9
8/17/19 - 1430 87.0 41 60.6 3.9 WNW | 293 8.8 0.00 0.00 59.9 87.6
8/17/19 - 1415 86.7 41 60.4 2.2 WSW | 257 6.6 0.00 0.00 59.9 87.3
8/17/19 - 1400 86.4 42 60.4 4.1 W | 280 9.0 0.00 0.00 59.9 86.9
8/17/19 - 1345 85.7 43 60.3 2.8 NW | 306 7.2 0.00 0.00 59.9 86.3
8/17/19 - 1330 85.1 43 60.0 4.3 WNW | 287 9.9 0.00 0.00 59.9 85.8
8/17/19 - 1315 84.8 43 59.5 3.8 WNW | 298 10.5 0.00 0.00 59.9 85.4
8/17/19 - 1300 84.4 43 59.5 3.5 WNW | 296 7.7 0.00 0.00 59.9 84.9
8/17/19 - 1245 83.4 44 59.4 4.2 NNW | 335 8.8 0.00 0.00 59.9 84.1
8/17/19 - 1230 82.8 46 59.6 4.9 NW | 318 8.8 0.00 0.00 59.9 83.6
8/17/19 - 1215 82.5 44 58.5 4.8 NW | 316 10.5 0.00 0.00 59.9 82.9
8/17/19 - 1200 82.3 45 59.0 5.5 WNW | 299 9.6 0.00 0.00 59.9 82.9
8/17/19 - 1145 81.6 47 59.3 5.3 WNW | 289 8.8 0.00 0.00 59.9 82.8
8/17/19 - 1130 80.5 49 59.7 3.7 NW | 316 8.6 0.00 0.00 59.9 81.2
8/17/19 - 1115 79.8 49 59.2 5.0 NW | 310 9.6 0.00 0.00 59.9 80.5
8/17/19 - 1100 78.7 51 59.0 5.1 NNW | 327 8.8 0.00 0.00 59.9 80.3
8/17/19 - 1045 79.4 50 59.2 4.8 WNW | 289 9.0 0.00 0.00 59.9 80.3
8/17/19 - 1030 77.4 51 58.1 4.0 NW | 308 8.1 0.00 0.00 59.9 78.5
Max 90.3 89 60.9 7.7 - 15.1 0.00 0.00 61.8 90.7
Avg 72.3 62 56.8 3.9 - 7.7 0.00 - - -
Min 57.3 36 53.9 1.8 - 3.7 0.00 0.00 57.1 63.0
Total - - - - - - 0.00 - - -

Last 7 Days

Modesto Jr College

Daily Data | America/Los_Angeles
as of 8/18/19 10:41 AM PDT
Date Daily ETo (in)
8/17/19 0.21
8/16/19 0.23
8/15/19 0.22
8/14/19 0.22
8/13/19 0.22
8/12/19 0.22
8/11/19 0.22
Max 0.23
Min 0.21